Lethbridge County Airport
CYQL : now visible

Airfield :











YOU CAN JOIN US ON...

 
LOGIN :

Register | Disclaimer

   EN    FR    IT 

 









Legend :    VFR   Marginal VFR   IFR   Intensive IFR   Very Intensive IFR
Visi :
Ceiling :
>= 8 km
>= 3000ft
5 to 8 km
1000 to 3000 ft
1500m to 5 km
500 to 1000 ft
800 to 1500m
200 to 500 ft
< 800m
< 200 ft
Symbols :   Thunderstorms  Fog  Heavy snow  Heavy precipitations  Wind > 20 kt






- Airport Elevation : 3047 ft
- IATA code : YQL


CYQL - Lethbridge County

CURRENT METAR :
  • 070400Z 11007KT 60SM FEW280 16/14 A2988 RMK CI1 CI TR LAST STFD OBS/NXT 071200Z SLP115 DENSITY ALT 3900FT

EXPIRED METARs :
  • 070300Z 11006KT 60SM FEW280 19/15 A2988 RMK CI1 CI TR SLP116 DENSITY ALT 4300FT
  • 070200Z 10007KT 60SM FEW050TCU FEW280 22/13 A2989 RMK TCU1CI1 TCU TR CI TR SLP116 DENSITY ALT 4700FT

TAF TAF CYQL
Valid from the 07 at 00:00 until the 07 at 12:00 UTC


062341Z 0700/0712 14006KT P6SM FEW060
BECMG 0708/0710 24008KT SCT200 RMK NXT FCST BY 070600Z
CZEG FIR / North America



MET'MAP, your aeronautical weather chart ! - Copyright ORBIFLY December 2007 - Disclaimer

ORBIFLY MET'MAP TEAM :

Programming & Development : Alexandra Zaïnal
Concept & original design : Baudouin d'Aumeries
Assistance for programming : Marc-Olivier Méhu
Technical & hardware support : Manuel Goepfert

Contact : metmap@orbifly.com




SOURCES & CREDITS :

   NOAA       Earth
Advisory